Time;durP1;ratioP1;P1;durP2;ratioP2;P2;SDS_P1;SDS_P2;PMS_P1;PMS_P2;Temp;Humidity;BMP_temperature;BMP_pressure;BME280_temperature;BME280_humidity;BME280_pressure;Samples;Min_cycle;Max_cycle;Signal;HPM_P1;HPM_P2
2022/02/25 00:00:43;;;;;;;30.32;15.93;;;;;;;3.95;83.69;100901.48;1754662;81;21534;-62
2022/02/25 00:03:14;;;;;;;29.63;16.52;;;;;;;3.97;83.63;100912.18;1752882;80;21294;-63
2022/02/25 00:05:45;;;;;;;33.95;17.62;;;;;;;3.94;83.53;100902.47;1757472;80;21054;-63
2022/02/25 00:08:15;;;;;;;31.75;16.82;;;;;;;3.97;83.60;100906.26;1753724;80;21113;-62
2022/02/25 00:10:46;;;;;;;33.60;15.68;;;;;;;3.94;83.46;100894.34;1757096;80;21094;-63
2022/02/25 00:13:16;;;;;;;33.85;16.23;;;;;;;3.95;83.44;100891.98;1751285;81;21000;-63
2022/02/25 00:15:47;;;;;;;31.65;16.57;;;;;;;3.95;83.37;100891.98;1760189;80;21024;-62
2022/02/25 00:18:17;;;;;;;34.50;16.90;;;;;;;3.91;83.28;100881.07;1760042;80;21069;-62
2022/02/25 00:20:48;;;;;;;33.78;18.00;;;;;;;3.85;83.31;100878.90;1762013;80;21063;-63
2022/02/25 00:23:18;;;;;;;35.78;18.27;;;;;;;3.83;83.42;100877.69;1753831;80;21026;-61
2022/02/25 00:25:49;;;;;;;32.67;16.95;;;;;;;3.83;83.50;100875.48;1746099;81;21483;-63
2022/02/25 00:28:19;;;;;;;40.12;18.45;;;;;;;3.85;83.59;100867.20;1757037;79;21101;-63
2022/02/25 00:30:50;;;;;;;34.63;18.45;;;;;;;3.87;83.56;100869.27;1764519;80;21109;-63
2022/02/25 00:33:21;;;;;;;32.93;17.85;;;;;;;3.88;83.58;100873.20;1744599;81;21030;-62
2022/02/25 00:35:52;;;;;;;38.40;19.02;;;;;;;3.89;83.66;100874.91;1742029;80;21063;-62
2022/02/25 00:38:22;;;;;;;37.30;18.85;;;;;;;3.90;83.64;100859.50;1762060;80;21514;-62
2022/02/25 00:40:53;;;;;;;34.65;17.17;;;;;;;3.89;83.58;100862.70;1766674;80;21506;-62
2022/02/25 00:43:23;;;;;;;37.63;18.15;;;;;;;3.87;83.48;100868.77;1771649;80;21524;-63
2022/02/25 00:45:54;;;;;;;39.53;19.17;;;;;;;3.86;83.48;100857.58;1753296;80;21109;-62
2022/02/25 00:48:25;;;;;;;32.95;17.70;;;;;;;3.87;83.57;100854.36;1759951;80;21094;-62
2022/02/25 00:50:55;;;;;;;32.93;17.07;;;;;;;3.87;83.56;100863.84;1771371;80;21135;-63
2022/02/25 00:53:25;;;;;;;38.63;18.62;;;;;;;3.86;83.55;100855.36;1768926;80;21180;-63
2022/02/25 00:55:56;;;;;;;38.90;18.45;;;;;;;3.84;83.57;100856.86;1765468;80;21062;-62
2022/02/25 00:58:26;;;;;;;33.38;16.85;;;;;;;3.83;83.60;100856.00;1751037;80;21122;-62
2022/02/25 01:00:57;;;;;;;36.70;18.45;;;;;;;3.85;83.58;100853.15;1757366;80;21050;-63
2022/02/25 01:03:26;;;;;;;37.83;19.27;;;;;;;3.84;83.57;100847.37;1766518;79;22727;-63
2022/02/25 01:05:55;;;;;;;38.70;19.35;;;;;;;3.81;83.60;100847.16;1759444;80;21516;-64
2022/02/25 01:08:25;;;;;;;35.23;18.05;;;;;;;3.80;83.63;100845.95;1748818;81;21043;-62
2022/02/25 01:10:54;;;;;;;39.98;18.90;;;;;;;3.81;83.69;100835.47;1760109;80;21046;-62
2022/02/25 01:13:24;;;;;;;34.35;17.10;;;;;;;3.81;83.72;100836.82;1763824;80;21050;-62
2022/02/25 01:15:53;;;;;;;42.83;19.60;;;;;;;3.83;83.71;100832.11;1759140;80;21030;-62
2022/02/25 01:18:24;;;;;;;40.05;20.17;;;;;;;3.83;83.68;100833.47;1781537;79;21060;-61
2022/02/25 01:20:53;;;;;;;38.15;19.15;;;;;;;3.83;83.65;100836.17;1766949;80;21104;-63
2022/02/25 01:23:24;;;;;;;37.15;19.27;;;;;;;3.82;83.68;100831.75;1745646;81;21087;-62
2022/02/25 01:25:53;;;;;;;38.00;18.92;;;;;;;3.82;83.72;100829.90;1719091;81;21575;-63
2022/02/25 01:28:21;;;;;;;37.98;19.35;;;;;;;3.85;83.74;100831.47;1706848;83;21088;-62
2022/02/25 01:30:50;;;;;;;39.85;19.32;;;;;;;3.84;83.59;100827.05;1756018;80;21058;-63
2022/02/25 01:33:19;;;;;;;38.40;20.15;;;;;;;3.84;83.62;100827.05;1757536;81;21027;-62
2022/02/25 01:35:47;;;;;;;37.40;18.57;;;;;;;3.82;83.60;100815.49;1757284;80;21097;-63
2022/02/25 01:38:16;;;;;;;40.05;20.57;;;;;;;3.81;83.56;100817.34;1765913;80;21022;-62
2022/02/25 01:40:45;;;;;;;40.70;19.40;;;;;;;3.78;83.54;100811.36;1774964;80;21170;-64
2022/02/25 01:43:14;;;;;;;37.05;18.60;;;;;;;3.76;83.56;100806.08;1759818;80;21070;-62
2022/02/25 01:45:44;;;;;;;37.38;19.15;;;;;;;3.78;83.55;100804.58;1753477;80;21057;-62
2022/02/25 01:48:13;;;;;;;36.88;19.50;;;;;;;3.76;83.46;100804.73;1759950;80;21062;-62
2022/02/25 01:50:43;;;;;;;36.15;18.70;;;;;;;3.75;83.48;100802.16;1767840;80;21543;-61
2022/02/25 01:53:11;;;;;;;33.83;17.82;;;;;;;3.74;83.49;100799.09;1753144;80;21580;-62
2022/02/25 01:55:41;;;;;;;34.60;17.90;;;;;;;3.75;83.50;100798.09;1756546;80;20979;-63
2022/02/25 01:58:11;;;;;;;32.55;16.15;;;;;;;3.73;83.36;100800.95;1755629;80;21200;-62
2022/02/25 02:00:40;;;;;;;32.83;16.25;;;;;;;3.70;83.38;100801.23;1745671;80;21093;-62
2022/02/25 02:03:10;;;;;;;32.48;16.42;;;;;;;3.71;83.30;100804.80;1753590;80;21134;-62
2022/02/25 02:05:39;;;;;;;31.82;16.48;;;;;;;3.67;83.21;100799.31;1760548;80;21101;-62
2022/02/25 02:08:08;;;;;;;31.07;16.95;;;;;;;3.68;83.18;100799.67;1732932;80;21170;-62
2022/02/25 02:10:38;;;;;;;29.30;15.03;;;;;;;3.67;83.19;100797.46;1752950;80;21028;-63
2022/02/25 02:13:07;;;;;;;34.25;16.60;;;;;;;3.69;83.12;100798.67;1756133;80;21534;-62
2022/02/25 02:15:36;;;;;;;32.15;16.17;;;;;;;3.69;82.97;100796.82;1762651;79;21095;-66
2022/02/25 02:18:04;;;;;;;33.23;16.37;;;;;;;3.70;82.93;100789.55;1754622;80;21534;-62
2022/02/25 02:20:33;;;;;;;32.95;16.10;;;;;;;3.70;82.94;100790.90;1749346;81;21472;-62
2022/02/25 02:23:01;;;;;;;28.07;15.83;;;;;;;3.71;82.91;100785.83;1768170;80;21062;-63
2022/02/25 02:25:30;;;;;;;31.82;16.12;;;;;;;3.70;82.77;100785.48;1752819;80;21471;-63
2022/02/25 02:30:48;;;;;;;30.90;15.98;;;;;;;3.69;82.79;100782.41;1754161;80;21086;-63
2022/02/25 02:33:16;;;;;;;31.20;15.90;;;;;;;3.69;82.75;100781.05;1765900;80;21019;-64
2022/02/25 02:35:45;;;;;;;30.48;16.30;;;;;;;3.68;82.77;100775.28;1762088;80;21198;-63
2022/02/25 02:38:14;;;;;;;34.40;16.95;;;;;;;3.71;82.77;100782.63;1752226;80;21538;-63
2022/02/25 02:40:43;;;;;;;31.00;16.07;;;;;;;3.69;82.67;100777.84;1763872;80;21078;-63
2022/02/25 02:43:13;;;;;;;30.60;15.15;;;;;;;3.69;82.69;100783.27;1753915;80;21556;-62
2022/02/25 02:45:42;;;;;;;32.83;16.35;;;;;;;3.69;82.65;100779.70;1754979;80;21471;-63
2022/02/25 02:48:10;;;;;;;30.15;15.88;;;;;;;3.69;82.56;100782.41;1760365;80;21113;-63
2022/02/25 02:50:39;;;;;;;33.63;17.23;;;;;;;3.67;82.56;100774.93;1744917;80;21135;-63
2022/02/25 02:53:08;;;;;;;35.08;17.15;;;;;;;3.66;82.59;100770.51;1714538;82;21109;-62
2022/02/25 02:55:36;;;;;;;34.10;16.15;;;;;;;3.65;82.54;100774.22;1754633;81;21484;-64
2022/02/25 02:58:06;;;;;;;32.28;16.10;;;;;;;3.65;82.52;100764.73;1758121;80;21078;-63
2022/02/25 03:00:37;;;;;;;29.52;15.13;;;;;;;3.65;82.51;100764.73;1761086;80;21074;-62
2022/02/25 03:03:08;;;;;;;33.83;16.20;;;;;;;3.66;82.53;100766.44;1753394;80;21058;-63
2022/02/25 03:05:37;;;;;;;29.20;15.68;;;;;;;3.64;82.45;100765.73;1758419;80;21105;-62
2022/02/25 03:08:05;;;;;;;30.82;16.90;;;;;;;3.60;82.44;100773.30;1755977;80;21117;-62
2022/02/25 03:10:36;;;;;;;34.38;16.12;;;;;;;3.61;82.45;100767.38;1768336;80;21045;-62
2022/02/25 03:13:04;;;;;;;30.00;15.90;;;;;;;3.60;82.31;100768.38;1753106;80;21671;-61
2022/02/25 03:15:35;;;;;;;34.43;16.65;;;;;;;3.58;82.25;100776.64;1752005;80;21078;-66
2022/02/25 03:18:05;;;;;;;32.10;16.80;;;;;;;3.58;82.23;100767.66;1765428;80;21142;-63
2022/02/25 03:20:33;;;;;;;36.15;17.20;;;;;;;3.57;82.16;100759.18;1763447;80;21025;-62
2022/02/25 03:23:01;;;;;;;30.12;16.48;;;;;;;3.57;82.13;100765.95;1764930;80;21478;-63
2022/02/25 03:25:30;;;;;;;36.05;17.70;;;;;;;3.57;82.03;100765.45;1759423;80;21062;-61
2022/02/25 03:28:00;;;;;;;36.48;17.77;;;;;;;3.54;81.88;100760.83;1760378;80;21458;-62
2022/02/25 03:30:29;;;;;;;34.45;16.30;;;;;;;3.52;81.82;100765.53;1755008;80;21592;-62
2022/02/25 03:32:58;;;;;;;36.05;17.42;;;;;;;3.49;81.74;100755.34;1751699;80;21101;-64
2022/02/25 03:35:27;;;;;;;34.92;17.00;;;;;;;3.50;81.76;100753.48;1753359;80;21522;-64
2022/02/25 03:37:56;;;;;;;31.05;16.73;;;;;;;3.48;81.73;100753.62;1752944;80;21117;-63
2022/02/25 03:40:27;;;;;;;35.23;17.57;;;;;;;3.48;81.74;100754.12;1753098;80;21676;-62
2022/02/25 03:42:56;;;;;;;35.30;16.57;;;;;;;3.48;81.78;100761.75;1758021;80;21066;-63
2022/02/25 03:45:24;;;;;;;34.78;17.02;;;;;;;3.47;81.65;100756.48;1760769;80;21595;-63
2022/02/25 03:47:53;;;;;;;35.78;17.05;;;;;;;3.46;81.56;100756.98;1764965;80;21673;-63
2022/02/25 03:50:23;;;;;;;33.65;16.87;;;;;;;3.47;81.45;100757.83;1742242;80;21529;-62
2022/02/25 03:52:51;;;;;;;33.70;17.30;;;;;;;3.46;81.44;100754.27;1745373;81;21142;-62
2022/02/25 03:55:22;;;;;;;30.88;16.85;;;;;;;3.45;81.38;100747.14;1748005;80;21593;-62
2022/02/25 03:57:50;;;;;;;31.73;16.32;;;;;;;3.46;81.31;100754.77;1762509;80;21078;-62
2022/02/25 04:00:19;;;;;;;35.38;17.27;;;;;;;3.47;81.25;100753.77;1753283;80;21502;-62
2022/02/25 04:02:48;;;;;;;32.55;16.87;;;;;;;3.44;81.14;100749.49;1757545;80;21182;-63
2022/02/25 04:05:17;;;;;;;36.53;17.57;;;;;;;3.45;81.16;100748.50;1749225;80;21540;-62
2022/02/25 04:07:46;;;;;;;34.60;16.95;;;;;;;3.45;81.07;100743.08;1750538;81;21470;-62
2022/02/25 04:10:15;;;;;;;33.42;17.70;;;;;;;3.43;81.04;100741.02;1749622;81;21012;-62
2022/02/25 04:12:44;;;;;;;35.55;17.35;;;;;;;3.45;81.05;100734.95;1755811;80;21086;-63
2022/02/25 04:15:14;;;;;;;37.42;17.05;;;;;;;3.45;80.96;100727.33;1759746;80;21062;-62
2022/02/25 04:17:43;;;;;;;33.18;16.35;;;;;;;3.44;80.87;100731.89;1753416;80;21050;-62
2022/02/25 04:20:13;;;;;;;36.40;17.20;;;;;;;3.41;80.86;100726.76;1752162;80;21197;-64
2022/02/25 04:22:42;;;;;;;33.73;17.37;;;;;;;3.38;80.80;100730.25;1770957;79;21100;-62
2022/02/25 04:25:11;;;;;;;34.08;17.23;;;;;;;3.37;80.83;100731.25;1758138;80;21026;-62
2022/02/25 04:27:40;;;;;;;35.75;18.12;;;;;;;3.36;80.81;100723.62;1762277;80;21462;-62
2022/02/25 04:30:10;;;;;;;34.75;18.20;;;;;;;3.36;80.83;100730.40;1765645;80;21568;-63
2022/02/25 04:32:39;;;;;;;36.25;16.87;;;;;;;3.34;80.78;100729.69;1781196;79;21177;-61
2022/02/25 04:35:12;;;;;;;37.10;17.57;;;;;;;3.36;80.67;100730.89;1765150;80;21015;-62
2022/02/25 04:37:41;;;;;;;30.72;16.52;;;;;;;3.35;80.69;100731.39;1764554;80;21058;-63
2022/02/25 04:40:12;;;;;;;35.43;17.35;;;;;;;3.38;80.71;100730.25;1752629;80;21062;-62
2022/02/25 04:42:41;;;;;;;36.75;16.67;;;;;;;3.39;80.56;100721.98;1747624;81;21090;-62
2022/02/25 04:45:10;;;;;;;33.18;16.85;;;;;;;3.38;80.38;100724.83;1747048;81;21113;-62
2022/02/25 04:47:39;;;;;;;41.50;17.50;;;;;;;3.35;80.21;100727.33;1749729;80;21054;-61
2022/02/25 04:50:10;;;;;;;31.55;15.65;;;;;;;3.33;80.09;100713.58;1750443;81;21074;-63
2022/02/25 04:52:42;;;;;;;31.73;15.23;;;;;;;3.32;79.93;100711.87;1755887;81;21494;-62
2022/02/25 04:55:12;;;;;;;28.07;14.65;;;;;;;3.30;79.70;100719.28;1742764;80;21050;-61
2022/02/25 04:57:42;;;;;;;30.10;13.72;;;;;;;3.28;79.62;100718.07;1754821;80;21101;-64
2022/02/25 05:00:13;;;;;;;29.92;13.68;;;;;;;3.29;79.36;100717.58;1766948;80;21458;-62
2022/02/25 05:02:46;;;;;;;31.33;14.33;;;;;;;3.23;78.86;100713.55;1753367;80;21094;-63
2022/02/25 05:05:15;;;;;;;25.35;13.85;;;;;;;3.22;78.75;100717.25;1765419;80;21071;-63
2022/02/25 05:07:45;;;;;;;28.38;13.28;;;;;;;3.21;78.54;100722.31;1756399;80;21057;-62
2022/02/25 05:10:14;;;;;;;29.18;12.43;;;;;;;3.20;78.35;100724.66;1756067;80;21094;-61
2022/02/25 05:12:45;;;;;;;30.30;13.35;;;;;;;3.22;78.23;100713.20;1749781;80;21094;-63
2022/02/25 05:20:49;;;;;;;24.87;12.15;;;;;;;3.17;77.21;100715.47;1745085;80;21606;-63
2022/02/25 05:23:18;;;;;;;29.42;12.93;;;;;;;3.15;77.02;100706.64;1754032;80;21007;-62
2022/02/25 05:25:49;;;;;;;38.17;12.88;;;;;;;3.16;76.96;100712.41;1659095;85;21112;-62
2022/02/25 05:28:18;;;;;;;26.15;12.10;;;;;;;3.14;76.68;100704.93;1663083;84;21558;-62
2022/02/25 05:30:49;;;;;;;22.85;12.05;;;;;;;3.14;76.58;100711.70;1660228;85;21065;-62
2022/02/25 05:33:17;;;;;;;29.00;13.22;;;;;;;3.13;76.38;100703.22;1657920;85;21143;-62
2022/02/25 05:35:46;;;;;;;25.80;12.03;;;;;;;3.11;76.11;100703.36;1630167;87;21241;-62
2022/02/25 05:38:15;;;;;;;27.48;11.65;;;;;;;3.12;76.09;100694.74;1661498;85;21134;-63
2022/02/25 05:40:44;;;;;;;27.10;11.65;;;;;;;3.12;75.83;100696.95;1658753;86;21173;-62
2022/02/25 05:43:12;;;;;;;24.18;11.10;;;;;;;3.11;75.65;100697.95;1686008;81;21046;-63
2022/02/25 05:45:41;;;;;;;29.40;12.25;;;;;;;3.12;75.44;100699.66;1747418;80;21059;-62
2022/02/25 05:48:10;;;;;;;32.60;12.53;;;;;;;3.13;75.27;100695.95;1751847;80;21114;-63
2022/02/25 05:50:40;;;;;;;23.18;10.70;;;;;;;3.15;75.21;100694.45;1750957;80;21087;-63
2022/02/25 05:53:09;;;;;;;24.07;11.15;;;;;;;3.16;74.97;100685.34;1753150;80;21298;-62
2022/02/25 05:55:37;;;;;;;24.50;11.33;;;;;;;3.15;74.81;100689.90;1741446;80;21074;-62
2022/02/25 05:58:06;;;;;;;28.42;11.25;;;;;;;3.19;74.54;100694.53;1741511;80;21134;-63
2022/02/25 06:00:37;;;;;;;22.82;10.78;;;;;;;3.19;74.36;100699.45;1766888;80;21181;-62
2022/02/25 06:03:06;;;;;;;25.77;11.90;;;;;;;3.17;74.12;100697.38;1759424;80;21156;-63
2022/02/25 06:05:35;;;;;;;25.55;10.98;;;;;;;3.18;74.06;100702.30;1757725;80;21547;-64
2022/02/25 06:08:04;;;;;;;27.10;10.32;;;;;;;3.18;73.88;100707.20;1753244;81;21134;-63
2022/02/25 06:10:33;;;;;;;20.43;11.03;;;;;;;3.21;73.71;100700.66;1744627;81;20988;-64
2022/02/25 06:13:02;;;;;;;27.32;10.60;;;;;;;3.26;73.52;100702.97;1746724;80;21138;-63
2022/02/25 06:15:31;;;;;;;24.07;10.80;;;;;;;3.30;73.41;100703.89;1747832;80;21110;-63
2022/02/25 06:18:02;;;;;;;24.98;11.28;;;;;;;3.31;73.24;100703.39;1754104;80;21591;-63
2022/02/25 06:20:31;;;;;;;24.95;11.53;;;;;;;3.30;73.08;100699.83;1751256;80;21502;-62
2022/02/25 06:23:03;;;;;;;24.37;10.98;;;;;;;3.32;73.04;100710.02;1762083;80;21097;-62
2022/02/25 06:25:32;;;;;;;27.75;11.10;;;;;;;3.32;72.92;100705.95;1752033;80;21178;-63
2022/02/25 06:28:04;;;;;;;27.13;11.57;;;;;;;3.32;72.81;100711.37;1753872;80;21152;-62
2022/02/25 06:30:32;;;;;;;26.10;11.53;;;;;;;3.32;72.92;100708.66;1764640;80;21046;-63
2022/02/25 06:33:01;;;;;;;25.43;10.93;;;;;;;3.36;72.87;100707.87;1751741;80;21067;-63
2022/02/25 06:35:30;;;;;;;35.85;12.15;;;;;;;3.38;72.60;100711.30;1755020;81;21047;-63
2022/02/25 06:37:59;;;;;;;40.35;12.15;;;;;;;3.38;72.46;100709.94;1749686;81;21573;-62
2022/02/25 06:40:27;;;;;;;40.85;11.68;;;;;;;3.37;72.51;100709.08;1766309;80;21177;-62
2022/02/25 06:42:56;;;;;;;35.85;12.23;;;;;;;3.38;72.47;100699.96;1760984;79;21054;-62
2022/02/25 06:45:25;;;;;;;30.95;12.15;;;;;;;3.38;72.42;100695.89;1769313;79;21575;-61
2022/02/25 06:47:54;;;;;;;26.02;11.50;;;;;;;3.41;72.50;100694.75;1759762;80;21046;-62
2022/02/25 06:50:23;;;;;;;34.75;12.88;;;;;;;3.42;72.29;100698.67;1746353;81;21129;-62
2022/02/25 06:52:52;;;;;;;23.32;11.45;;;;;;;3.41;72.21;100694.75;1766190;80;21077;-63
2022/02/25 06:55:21;;;;;;;32.15;12.33;;;;;;;3.40;72.24;100693.91;1746095;81;21062;-63
2022/02/25 06:57:52;;;;;;;31.27;11.97;;;;;;;3.42;72.39;100695.97;1746849;81;21129;-62
2022/02/25 07:00:22;;;;;;;32.08;12.37;;;;;;;3.45;72.45;100695.67;1745053;80;21094;-62
2022/02/25 07:02:52;;;;;;;28.50;11.48;;;;;;;3.47;72.47;100681.98;1745494;81;21044;-62
2022/02/25 07:05:23;;;;;;;23.32;11.73;;;;;;;3.52;72.33;100686.97;1780437;79;21129;-63
2022/02/25 07:07:52;;;;;;;32.13;12.53;;;;;;;3.54;72.20;100683.61;1753386;80;21173;-62
2022/02/25 07:10:20;;;;;;;33.18;12.18;;;;;;;3.56;72.17;100685.17;1765642;80;21560;-61
2022/02/25 07:12:49;;;;;;;25.57;11.73;;;;;;;3.58;72.04;100685.03;1759732;80;21030;-62
2022/02/25 07:15:18;;;;;;;29.18;11.75;;;;;;;3.62;72.11;100687.80;1752129;80;21082;-63
2022/02/25 07:17:46;;;;;;;26.85;11.83;;;;;;;3.67;72.11;100690.92;1753646;80;21447;-62
2022/02/25 07:20:17;;;;;;;26.90;12.20;;;;;;;3.69;72.19;100683.01;1758632;80;21141;-63
2022/02/25 07:22:47;;;;;;;30.32;11.78;;;;;;;3.73;72.22;100679.00;1766073;79;21432;-63
2022/02/25 07:25:18;;;;;;;32.13;13.53;;;;;;;3.77;72.12;100671.43;1761437;79;21086;-62
2022/02/25 07:27:47;;;;;;;32.55;13.30;;;;;;;3.79;72.09;100668.07;1748829;81;21529;-63
2022/02/25 07:30:16;;;;;;;27.05;12.68;;;;;;;3.80;72.14;100662.50;1755584;81;21471;-62
2022/02/25 07:32:44;;;;;;;35.85;14.33;;;;;;;3.82;72.09;100663.72;1764024;79;21534;-63
2022/02/25 07:35:14;;;;;;;28.77;12.80;;;;;;;3.83;72.20;100660.00;1754013;80;21038;-63
2022/02/25 07:37:43;;;;;;;25.08;12.10;;;;;;;3.86;72.08;100655.64;1762284;80;21039;-64
2022/02/25 07:40:13;;;;;;;27.35;11.70;;;;;;;3.86;71.92;100652.92;1753478;80;21106;-62
2022/02/25 07:42:44;;;;;;;25.30;11.73;;;;;;;3.88;71.93;100659.55;1763406;80;21023;-62
2022/02/25 07:45:12;;;;;;;26.82;12.63;;;;;;;3.93;71.96;100663.56;1761118;80;21526;-63
2022/02/25 07:47:42;;;;;;;27.73;12.70;;;;;;;3.99;71.87;100657.55;1755297;80;21097;-62
2022/02/25 07:50:12;;;;;;;26.25;12.90;;;;;;;4.04;71.89;100665.23;1754391;80;21098;-62
2022/02/25 07:52:41;;;;;;;26.37;12.65;;;;;;;4.08;71.75;100660.72;1762525;80;21565;-62
2022/02/25 07:55:09;;;;;;;32.93;13.30;;;;;;;4.11;71.70;100661.77;1751727;80;21086;-62
2022/02/25 07:57:38;;;;;;;30.45;13.08;;;;;;;4.13;71.57;100661.63;1755436;80;21189;-64
2022/02/25 08:00:10;;;;;;;29.65;13.50;;;;;;;4.13;71.62;100658.41;1757312;80;21197;-63
2022/02/25 08:02:40;;;;;;;26.80;12.80;;;;;;;4.16;71.64;100646.41;1780113;79;21022;-63
2022/02/25 08:05:09;;;;;;;36.60;14.98;;;;;;;4.20;71.50;100651.88;1764492;80;21046;-62
2022/02/25 08:07:43;;;;;;;29.35;14.15;;;;;;;4.20;71.48;100647.81;1759245;80;21549;-62
2022/02/25 08:10:14;;;;;;;24.55;12.53;;;;;;;4.25;71.50;100646.00;1751308;80;21022;-62
2022/02/25 08:12:43;;;;;;;25.12;12.88;;;;;;;4.27;71.43;100644.84;1758063;80;21081;-62
2022/02/25 08:15:12;;;;;;;27.40;13.30;;;;;;;4.30;71.55;100643.69;1757953;80;21354;-63
2022/02/25 08:17:41;;;;;;;38.65;13.75;;;;;;;4.35;71.62;100638.66;1760715;80;21070;-64
2022/02/25 08:20:11;;;;;;;43.95;14.05;;;;;;;4.39;71.82;100630.57;1751684;80;21272;-62
2022/02/25 08:22:40;;;;;;;26.02;13.20;;;;;;;4.47;72.02;100632.02;1752351;80;21141;-62
2022/02/25 08:25:09;;;;;;;31.57;14.45;;;;;;;4.49;71.36;100627.30;1753563;80;21077;-63
2022/02/25 08:27:38;;;;;;;28.98;13.55;;;;;;;4.53;71.40;100622.41;1752015;80;21149;-62
2022/02/25 08:30:14;;;;;;;34.85;13.48;;;;;;;4.58;71.19;100627.77;1752381;80;21062;-62
2022/02/25 08:32:39;;;;;;;38.05;15.15;;;;;;;4.63;71.24;100618.66;1761230;78;21557;-62
2022/02/25 08:35:09;;;;;;;25.08;12.85;;;;;;;4.69;71.35;100625.33;1757953;80;21030;-62
2022/02/25 08:37:38;;;;;;;25.45;13.20;;;;;;;4.76;71.37;100619.63;1761003;80;21074;-63
2022/02/25 08:40:10;;;;;;;24.63;12.73;;;;;;;4.80;71.15;100613.39;1765076;80;21502;-61
2022/02/25 08:42:39;;;;;;;26.10;13.15;;;;;;;4.80;70.88;100615.59;1771315;80;21098;-62
2022/02/25 08:45:09;;;;;;;41.63;14.73;;;;;;;4.78;70.59;100611.68;1753122;80;21046;-63
2022/02/25 08:47:41;;;;;;;24.92;13.35;;;;;;;4.80;70.67;100621.02;1773807;80;21540;-62
2022/02/25 08:50:11;;;;;;;29.37;13.38;;;;;;;4.80;70.60;100605.24;1768062;79;21161;-62
2022/02/25 08:52:42;;;;;;;26.00;13.28;;;;;;;4.84;70.46;100609.35;1755348;80;21081;-63
2022/02/25 08:55:11;;;;;;;29.82;14.10;;;;;;;4.86;70.22;100602.75;1753298;80;21525;-62
2022/02/25 08:57:42;;;;;;;23.42;12.40;;;;;;;4.89;70.17;100598.88;1745118;80;21098;-63
2022/02/25 09:00:23;;;;;;;27.07;13.25;;;;;;;4.94;70.28;100600.11;1748081;81;21059;-62
2022/02/25 09:02:52;;;;;;;25.68;13.50;;;;;;;4.95;70.16;100600.46;1743335;81;21503;-62
2022/02/25 09:05:24;;;;;;;26.17;14.03;;;;;;;4.96;70.18;100595.38;1741076;80;21103;-62
2022/02/25 09:07:54;;;;;;;25.12;12.60;;;;;;;4.99;69.96;100592.85;1743563;81;21498;-62
2022/02/25 09:10:23;;;;;;;21.80;12.18;;;;;;;5.02;69.91;100596.61;1737390;80;21086;-63
2022/02/25 09:12:53;;;;;;;28.07;13.68;;;;;;;5.06;69.71;100592.57;1763468;80;21518;-62
2022/02/25 09:15:25;;;;;;;34.53;12.82;;;;;;;5.10;69.78;100596.17;1775239;80;21010;-64
2022/02/25 09:17:58;;;;;;;23.30;11.48;;;;;;;5.17;69.53;100590.95;1763145;80;21090;-62
2022/02/25 09:20:27;;;;;;;23.35;11.85;;;;;;;5.23;69.23;100594.94;1759945;80;21015;-62
2022/02/25 09:22:57;;;;;;;28.65;11.35;;;;;;;5.28;68.70;100593.45;1765824;80;21065;-62
2022/02/25 09:25:27;;;;;;;22.22;12.28;;;;;;;5.35;68.43;100593.16;1764433;80;21041;-62
2022/02/25 09:27:56;;;;;;;23.20;11.70;;;;;;;5.45;67.96;100590.84;1759727;80;21168;-62
2022/02/25 09:30:25;;;;;;;22.02;12.20;;;;;;;5.51;67.74;100584.77;1728049;81;21173;-63
2022/02/25 09:32:55;;;;;;;22.55;12.05;;;;;;;5.55;67.13;100584.28;1752930;80;21089;-63
2022/02/25 09:35:24;;;;;;;19.25;10.98;;;;;;;5.60;66.93;100578.36;1769286;80;21506;-62
2022/02/25 09:37:53;;;;;;;20.30;10.25;;;;;;;5.63;66.60;100579.40;1762839;80;21130;-61
2022/02/25 09:40:22;;;;;;;15.53;9.25;;;;;;;5.64;66.16;100569.73;1756124;80;21511;-63
2022/02/25 09:42:53;;;;;;;19.77;9.85;;;;;;;5.66;64.94;100564.12;1767243;80;21200;-62
2022/02/25 09:45:22;;;;;;;19.80;9.75;;;;;;;5.67;64.36;100563.97;1758943;79;22073;-62
2022/02/25 09:47:52;;;;;;;16.57;8.95;;;;;;;5.71;64.37;100559.05;1758129;80;21030;-63
2022/02/25 09:50:22;;;;;;;15.10;7.72;;;;;;;5.74;62.98;100553.30;1762343;80;21069;-62
2022/02/25 09:52:53;;;;;;;19.67;7.62;;;;;;;5.74;61.64;100555.50;1752999;80;21022;-62
2022/02/25 09:55:34;;;;;;;15.55;8.28;;;;;;;5.74;61.29;100548.70;1743961;80;21098;-62
2022/02/25 09:58:05;;;;;;;15.40;8.00;;;;;;;5.77;60.72;100548.03;1747252;81;21064;-63
2022/02/25 10:00:35;;;;;;;16.05;8.20;;;;;;;5.73;60.54;100544.79;1742774;80;21556;-63
2022/02/25 10:03:11;;;;;;;13.65;7.80;;;;;;;5.71;60.52;100549.03;1754680;80;21158;-63
2022/02/25 10:05:42;;;;;;;16.15;8.13;;;;;;;5.74;60.65;100531.55;1748078;80;21189;-63
2022/02/25 10:08:18;;;;;;;16.42;8.40;;;;;;;5.79;60.48;100527.83;1758442;80;21542;-63
2022/02/25 10:10:50;;;;;;;15.48;8.23;;;;;;;5.87;60.60;100525.17;1768346;79;21539;-62
2022/02/25 10:13:22;;;;;;;13.55;7.45;;;;;;;5.94;60.63;100521.31;1752517;80;21310;-62
2022/02/25 10:15:59;;;;;;;13.08;7.62;;;;;;;6.00;60.38;100526.09;1749565;81;21039;-63
2022/02/25 10:18:31;;;;;;;13.90;7.58;;;;;;;6.04;60.17;100518.80;1753786;81;21632;-63
2022/02/25 10:21:13;;;;;;;15.48;8.70;;;;;;;6.06;59.65;100506.91;1753813;80;21482;-63
2022/02/25 10:23:45;;;;;;;17.87;7.45;;;;;;;6.07;59.60;100501.80;1763522;80;21030;-63
2022/02/25 10:26:18;;;;;;;18.17;7.83;;;;;;;6.11;59.79;100495.02;1765088;80;21502;-62
2022/02/25 10:28:58;;;;;;;16.23;8.50;;;;;;;6.12;59.29;100483.11;1769464;80;21145;-62
2022/02/25 10:31:34;;;;;;;14.90;7.58;;;;;;;6.15;58.69;100495.88;1762015;80;21113;-62
2022/02/25 10:34:16;;;;;;;16.15;7.90;;;;;;;6.16;58.06;100491.28;1754238;81;21074;-62
2022/02/25 10:36:49;;;;;;;12.05;7.40;;;;;;;6.16;57.83;100485.84;1742278;81;21098;-63
2022/02/25 10:39:22;;;;;;;13.53;7.55;;;;;;;6.14;58.03;100484.65;1749504;80;21506;-63
2022/02/25 10:42:15;;;;;;;14.93;7.97;;;;;;;6.17;57.79;100482.95;1763066;78;21042;-62
2022/02/25 10:45:02;;;;;;;12.73;7.78;;;;;;;6.19;57.82;100480.06;1756285;80;21661;-62
2022/02/25 10:47:43;;;;;;;16.10;7.90;;;;;;;6.21;57.96;100481.60;1757211;80;21905;-63
2022/02/25 10:50:09;;;;;;;15.03;7.78;;;;;;;6.23;57.83;100477.35;1754616;80;21700;-63
2022/02/25 10:52:47;;;;;;;14.30;8.25;;;;;;;6.28;57.96;100474.98;1742160;81;21091;-62
2022/02/25 10:55:21;;;;;;;13.62;8.05;;;;;;;6.33;57.59;100469.88;1743742;81;21024;-62
2022/02/25 10:57:52;;;;;;;16.45;8.58;;;;;;;6.35;57.63;100454.23;1758876;80;21058;-62
2022/02/25 11:00:21;;;;;;;16.20;8.23;;;;;;;6.35;57.82;100450.16;1763971;78;21071;-62
2022/02/25 11:02:51;;;;;;;13.53;7.92;;;;;;;6.34;57.48;100443.86;1751262;80;21089;-63
2022/02/25 11:05:23;;;;;;;15.63;8.08;;;;;;;6.34;57.47;100442.50;1759797;80;21054;-63
2022/02/25 11:07:58;;;;;;;14.25;8.45;;;;;;;6.36;57.22;100427.36;1749556;78;21624;-64
2022/02/25 11:10:30;;;;;;;13.85;7.90;;;;;;;6.40;57.23;100426.00;1784015;77;21044;-65
2022/02/25 11:13:05;;;;;;;15.10;8.40;;;;;;;6.45;56.48;100429.58;1787183;77;21153;-63
2022/02/25 11:15:36;;;;;;;15.83;8.03;;;;;;;6.44;56.63;100417.84;1779351;78;21046;-61
2022/02/25 11:18:07;;;;;;;13.28;7.45;;;;;;;6.45;56.68;100416.81;1754365;81;21042;-63
2022/02/25 11:21:26;;;;;;;13.25;7.50;;;;;;;6.45;56.57;100420.05;1773518;80;21015;-64
2022/02/25 11:23:55;;;;;;;14.55;7.28;;;;;;;6.44;56.49;100411.55;1783165;80;21098;-63
2022/02/25 11:26:24;;;;;;;13.85;7.70;;;;;;;6.49;56.56;100405.92;1720197;82;21499;-63
2022/02/25 11:28:59;;;;;;;14.25;7.22;;;;;;;6.56;56.29;100405.61;1814029;77;21035;-64
2022/02/25 11:31:32;;;;;;;13.10;7.20;;;;;;;6.61;55.38;100407.81;1831806;77;21620;-62
2022/02/25 11:34:01;;;;;;;11.60;7.15;;;;;;;6.64;55.45;100414.28;1836491;78;21134;-64
2022/02/25 11:36:45;;;;;;;16.23;7.30;;;;;;;6.66;55.65;100410.36;1765126;80;21042;-64
2022/02/25 11:39:23;;;;;;;13.83;7.10;;;;;;;6.67;55.65;100406.62;1836512;77;21543;-64
2022/02/25 11:42:04;;;;;;;12.18;7.30;;;;;;;6.68;54.90;100404.23;1765373;80;21063;-63